Weather at New Quarter Farm Airport

Public forecast

Using degrees Fahrenheit for public forecast. Weather courtesy of forecast.io.

Closest aviation weather report (METAR) to New Quarter Farm Airport

Closest report is Williamsburg Jamestown Airport, 9.6 nm (17.8 km) SW. Retrieved 2020/10/01 07:35 UTC (17 minutes ago):

KJGG 010735Z AUTO 26004KT 10SM CLR 16/12 A2997 RMK AO1

Closest aviation forecast (TAF) to New Quarter Farm Airport

Forecast is more than 12 hours old.

Closest forecast is Felker Army Air Field, 12.9 nm (23.9 km) S. Retrieved 2020/09/30 18:27 UTC (13 hours ago):

TAF KFAF 301815Z 3018/0124 26012KT 9999 FEW045 QNH2986INS BECMG 0108/0109 VRB06KT 6000 BR SKC QNH2993INS BECMG 0113/0114 23009KT 9999 NSW SKC QNH2996INS TX22/3018Z TN14/0110Z LAST NO AMDS AFT 0103 NEXT 0110